sensor_id;sensor_type;location;lat;lon;timestamp;P1;durP1;ratioP1;P2;durP2;ratioP2
21581;SDS011;10952;50.836;4.348;2024-02-04T00:03:17;18.27;;;9.17;;
21581;SDS011;10952;50.836;4.348;2024-02-04T00:05:50;16.60;;;9.60;;
21581;SDS011;10952;50.836;4.348;2024-02-04T00:08:18;18.47;;;8.60;;
21581;SDS011;10952;50.836;4.348;2024-02-04T00:10:43;20.93;;;9.07;;
21581;SDS011;10952;50.836;4.348;2024-02-04T00:18:14;15.70;;;8.00;;
21581;SDS011;10952;50.836;4.348;2024-02-04T00:20:41;19.80;;;9.33;;
21581;SDS011;10952;50.836;4.348;2024-02-04T00:23:24;22.07;;;9.00;;
21581;SDS011;10952;50.836;4.348;2024-02-04T00:25:53;15.23;;;9.50;;
21581;SDS011;10952;50.836;4.348;2024-02-04T00:28:19;18.03;;;9.37;;
21581;SDS011;10952;50.836;4.348;2024-02-04T00:33:16;18.27;;;8.07;;
21581;SDS011;10952;50.836;4.348;2024-02-04T00:38:14;15.23;;;7.87;;
21581;SDS011;10952;50.836;4.348;2024-02-04T00:40:41;18.33;;;7.97;;
21581;SDS011;10952;50.836;4.348;2024-02-04T00:43:08;16.60;;;8.50;;
21581;SDS011;10952;50.836;4.348;2024-02-04T00:48:04;21.13;;;9.00;;
21581;SDS011;10952;50.836;4.348;2024-02-04T00:53:02;13.70;;;7.53;;
21581;SDS011;10952;50.836;4.348;2024-02-04T00:57:58;17.30;;;7.70;;
21581;SDS011;10952;50.836;4.348;2024-02-04T01:00:34;12.57;;;7.00;;
21581;SDS011;10952;50.836;4.348;2024-02-04T01:03:01;15.30;;;8.27;;
21581;SDS011;10952;50.836;4.348;2024-02-04T01:05:30;15.63;;;7.07;;
21581;SDS011;10952;50.836;4.348;2024-02-04T01:07:56;16.53;;;8.63;;
21581;SDS011;10952;50.836;4.348;2024-02-04T01:10:23;16.43;;;7.97;;
21581;SDS011;10952;50.836;4.348;2024-02-04T01:15:28;13.00;;;6.97;;
21581;SDS011;10952;50.836;4.348;2024-02-04T01:17:59;17.33;;;7.20;;
21581;SDS011;10952;50.836;4.348;2024-02-04T01:20:25;15.90;;;8.23;;
21581;SDS011;10952;50.836;4.348;2024-02-04T01:22:58;16.90;;;7.20;;
21581;SDS011;10952;50.836;4.348;2024-02-04T01:25:23;14.63;;;8.67;;
21581;SDS011;10952;50.836;4.348;2024-02-04T01:27:53;14.57;;;6.90;;
21581;SDS011;10952;50.836;4.348;2024-02-04T01:30:19;9.30;;;6.07;;
21581;SDS011;10952;50.836;4.348;2024-02-04T01:32:46;16.10;;;6.43;;
21581;SDS011;10952;50.836;4.348;2024-02-04T01:41:03;10.73;;;6.80;;
21581;SDS011;10952;50.836;4.348;2024-02-04T01:43:29;13.87;;;6.73;;
21581;SDS011;10952;50.836;4.348;2024-02-04T01:45:59;17.20;;;7.57;;
21581;SDS011;10952;50.836;4.348;2024-02-04T01:48:25;12.63;;;6.40;;
21581;SDS011;10952;50.836;4.348;2024-02-04T01:50:54;19.80;;;8.20;;
21581;SDS011;10952;50.836;4.348;2024-02-04T01:55:57;12.93;;;6.97;;
21581;SDS011;10952;50.836;4.348;2024-02-04T01:58:23;14.53;;;7.10;;
21581;SDS011;10952;50.836;4.348;2024-02-04T02:03:39;19.37;;;7.87;;
21581;SDS011;10952;50.836;4.348;2024-02-04T02:06:11;19.57;;;9.10;;
21581;SDS011;10952;50.836;4.348;2024-02-04T02:08:48;16.90;;;7.97;;
21581;SDS011;10952;50.836;4.348;2024-02-04T02:14:09;22.63;;;9.23;;
21581;SDS011;10952;50.836;4.348;2024-02-04T02:16:43;26.40;;;10.53;;
21581;SDS011;10952;50.836;4.348;2024-02-04T02:22:34;22.47;;;9.13;;
21581;SDS011;10952;50.836;4.348;2024-02-04T02:25:14;21.77;;;11.07;;
21581;SDS011;10952;50.836;4.348;2024-02-04T02:27:50;20.60;;;9.77;;
21581;SDS011;10952;50.836;4.348;2024-02-04T02:30:18;16.40;;;8.67;;
21581;SDS011;10952;50.836;4.348;2024-02-04T02:32:46;15.70;;;9.00;;
21581;SDS011;10952;50.836;4.348;2024-02-04T02:35:14;24.23;;;10.13;;
21581;SDS011;10952;50.836;4.348;2024-02-04T02:40:59;24.27;;;11.00;;
21581;SDS011;10952;50.836;4.348;2024-02-04T02:43:32;22.73;;;11.25;;
21581;SDS011;10952;50.836;4.348;2024-02-04T02:46:00;21.97;;;9.70;;
21581;SDS011;10952;50.836;4.348;2024-02-04T02:48:32;27.17;;;10.57;;
21581;SDS011;10952;50.836;4.348;2024-02-04T02:51:04;27.63;;;10.47;;
21581;SDS011;10952;50.836;4.348;2024-02-04T02:53:31;25.43;;;10.20;;
21581;SDS011;10952;50.836;4.348;2024-02-04T02:55:57;29.70;;;12.50;;
21581;SDS011;10952;50.836;4.348;2024-02-04T02:58:25;22.67;;;11.17;;
21581;SDS011;10952;50.836;4.348;2024-02-04T03:00:52;28.43;;;11.87;;
21581;SDS011;10952;50.836;4.348;2024-02-04T03:05:49;23.57;;;9.57;;
21581;SDS011;10952;50.836;4.348;2024-02-04T03:08:21;28.70;;;10.77;;
21581;SDS011;10952;50.836;4.348;2024-02-04T03:10:46;25.73;;;10.80;;
21581;SDS011;10952;50.836;4.348;2024-02-04T03:18:21;22.67;;;11.33;;
21581;SDS011;10952;50.836;4.348;2024-02-04T03:23:18;29.00;;;12.13;;
21581;SDS011;10952;50.836;4.348;2024-02-04T03:28:17;19.23;;;9.77;;
21581;SDS011;10952;50.836;4.348;2024-02-04T03:30:47;16.93;;;8.90;;
21581;SDS011;10952;50.836;4.348;2024-02-04T03:35:43;24.20;;;8.87;;
21581;SDS011;10952;50.836;4.348;2024-02-04T03:38:09;25.40;;;9.07;;
21581;SDS011;10952;50.836;4.348;2024-02-04T03:40:41;19.67;;;8.90;;
21581;SDS011;10952;50.836;4.348;2024-02-04T03:45:45;24.80;;;9.07;;
21581;SDS011;10952;50.836;4.348;2024-02-04T03:48:13;23.67;;;9.43;;
21581;SDS011;10952;50.836;4.348;2024-02-04T03:50:39;20.70;;;8.47;;
21581;SDS011;10952;50.836;4.348;2024-02-04T03:56:00;21.03;;;8.87;;
21581;SDS011;10952;50.836;4.348;2024-02-04T03:58:28;19.10;;;8.33;;
21581;SDS011;10952;50.836;4.348;2024-02-04T04:03:28;21.13;;;9.13;;
21581;SDS011;10952;50.836;4.348;2024-02-04T04:05:57;19.63;;;8.10;;
21581;SDS011;10952;50.836;4.348;2024-02-04T04:08:22;17.40;;;8.47;;
21581;SDS011;10952;50.836;4.348;2024-02-04T04:10:54;24.00;;;9.67;;
21581;SDS011;10952;50.836;4.348;2024-02-04T04:13:21;12.17;;;7.83;;
21581;SDS011;10952;50.836;4.348;2024-02-04T04:15:48;15.97;;;8.03;;
21581;SDS011;10952;50.836;4.348;2024-02-04T04:18:13;25.70;;;8.97;;
21581;SDS011;10952;50.836;4.348;2024-02-04T04:20:40;20.57;;;8.23;;
21581;SDS011;10952;50.836;4.348;2024-02-04T04:32:32;17.50;;;8.20;;
21581;SDS011;10952;50.836;4.348;2024-02-04T04:34:59;17.97;;;7.53;;
21581;SDS011;10952;50.836;4.348;2024-02-04T04:37:25;15.80;;;7.30;;
21581;SDS011;10952;50.836;4.348;2024-02-04T04:39:54;19.57;;;7.83;;
21581;SDS011;10952;50.836;4.348;2024-02-04T04:42:23;18.17;;;7.77;;
21581;SDS011;10952;50.836;4.348;2024-02-04T04:47:19;28.33;;;11.00;;
21581;SDS011;10952;50.836;4.348;2024-02-04T04:49:47;22.50;;;9.27;;
21581;SDS011;10952;50.836;4.348;2024-02-04T04:52:14;21.30;;;8.40;;
21581;SDS011;10952;50.836;4.348;2024-02-04T04:54:43;20.10;;;8.27;;
21581;SDS011;10952;50.836;4.348;2024-02-04T04:59:40;22.97;;;8.40;;
21581;SDS011;10952;50.836;4.348;2024-02-04T05:04:36;13.90;;;7.60;;
21581;SDS011;10952;50.836;4.348;2024-02-04T05:07:10;18.30;;;8.70;;
21581;SDS011;10952;50.836;4.348;2024-02-04T05:09:38;18.97;;;7.93;;
21581;SDS011;10952;50.836;4.348;2024-02-04T05:12:08;21.13;;;7.57;;
21581;SDS011;10952;50.836;4.348;2024-02-04T05:14:41;23.60;;;7.50;;
21581;SDS011;10952;50.836;4.348;2024-02-04T05:17:06;25.33;;;7.60;;
21581;SDS011;10952;50.836;4.348;2024-02-04T05:19:34;18.83;;;7.43;;
21581;SDS011;10952;50.836;4.348;2024-02-04T05:22:00;24.23;;;10.47;;
21581;SDS011;10952;50.836;4.348;2024-02-04T05:24:27;24.17;;;9.27;;
21581;SDS011;10952;50.836;4.348;2024-02-04T05:26:52;19.43;;;7.77;;
21581;SDS011;10952;50.836;4.348;2024-02-04T05:29:19;19.93;;;7.87;;
21581;SDS011;10952;50.836;4.348;2024-02-04T05:31:45;17.33;;;7.57;;
21581;SDS011;10952;50.836;4.348;2024-02-04T05:34:10;25.17;;;9.13;;
21581;SDS011;10952;50.836;4.348;2024-02-04T05:36:38;21.33;;;8.63;;
21581;SDS011;10952;50.836;4.348;2024-02-04T05:39:13;23.97;;;8.40;;
21581;SDS011;10952;50.836;4.348;2024-02-04T05:41:40;20.97;;;7.63;;
21581;SDS011;10952;50.836;4.348;2024-02-04T05:44:06;14.43;;;6.47;;
21581;SDS011;10952;50.836;4.348;2024-02-04T05:46:33;19.17;;;8.20;;
21581;SDS011;10952;50.836;4.348;2024-02-04T05:49:04;21.07;;;8.37;;
21581;SDS011;10952;50.836;4.348;2024-02-04T05:51:31;20.70;;;7.97;;
21581;SDS011;10952;50.836;4.348;2024-02-04T05:54:02;22.23;;;8.90;;
21581;SDS011;10952;50.836;4.348;2024-02-04T05:56:27;18.27;;;8.20;;
21581;SDS011;10952;50.836;4.348;2024-02-04T05:58:53;30.13;;;8.17;;
21581;SDS011;10952;50.836;4.348;2024-02-04T06:01:20;26.03;;;10.03;;
21581;SDS011;10952;50.836;4.348;2024-02-04T06:03:52;25.87;;;8.50;;
21581;SDS011;10952;50.836;4.348;2024-02-04T06:06:20;35.00;;;9.17;;
21581;SDS011;10952;50.836;4.348;2024-02-04T06:08:47;18.43;;;8.03;;
21581;SDS011;10952;50.836;4.348;2024-02-04T06:11:14;16.63;;;8.87;;
21581;SDS011;10952;50.836;4.348;2024-02-04T06:13:43;18.57;;;8.37;;
21581;SDS011;10952;50.836;4.348;2024-02-04T06:16:12;19.63;;;9.60;;
21581;SDS011;10952;50.836;4.348;2024-02-04T06:18:44;21.37;;;9.30;;
21581;SDS011;10952;50.836;4.348;2024-02-04T06:21:28;17.53;;;8.83;;
21581;SDS011;10952;50.836;4.348;2024-02-04T06:23:57;24.07;;;9.43;;
21581;SDS011;10952;50.836;4.348;2024-02-04T06:26:24;19.07;;;8.97;;
21581;SDS011;10952;50.836;4.348;2024-02-04T06:28:50;21.20;;;9.63;;
21581;SDS011;10952;50.836;4.348;2024-02-04T06:31:16;21.20;;;9.10;;
21581;SDS011;10952;50.836;4.348;2024-02-04T06:33:41;24.40;;;8.23;;
21581;SDS011;10952;50.836;4.348;2024-02-04T06:36:10;20.77;;;8.90;;
21581;SDS011;10952;50.836;4.348;2024-02-04T06:38:37;20.47;;;8.23;;
21581;SDS011;10952;50.836;4.348;2024-02-04T06:41:03;16.97;;;7.87;;
21581;SDS011;10952;50.836;4.348;2024-02-04T06:43:29;20.57;;;8.20;;
21581;SDS011;10952;50.836;4.348;2024-02-04T06:45:58;17.37;;;8.17;;
21581;SDS011;10952;50.836;4.348;2024-02-04T06:48:25;13.87;;;7.13;;
21581;SDS011;10952;50.836;4.348;2024-02-04T06:50:52;22.40;;;8.13;;
21581;SDS011;10952;50.836;4.348;2024-02-04T06:55:46;21.73;;;7.77;;
21581;SDS011;10952;50.836;4.348;2024-02-04T07:01:16;17.63;;;8.60;;
21581;SDS011;10952;50.836;4.348;2024-02-04T07:03:42;16.93;;;8.33;;
21581;SDS011;10952;50.836;4.348;2024-02-04T07:06:11;19.60;;;8.80;;
21581;SDS011;10952;50.836;4.348;2024-02-04T07:11:12;21.63;;;8.77;;
21581;SDS011;10952;50.836;4.348;2024-02-04T07:13:47;19.30;;;9.30;;
21581;SDS011;10952;50.836;4.348;2024-02-04T07:16:26;19.60;;;8.03;;
21581;SDS011;10952;50.836;4.348;2024-02-04T07:21:46;21.23;;;8.80;;
21581;SDS011;10952;50.836;4.348;2024-02-04T07:27:02;24.10;;;9.50;;
21581;SDS011;10952;50.836;4.348;2024-02-04T07:32:08;20.20;;;9.27;;
21581;SDS011;10952;50.836;4.348;2024-02-04T07:37:42;20.97;;;9.33;;
21581;SDS011;10952;50.836;4.348;2024-02-04T07:42:46;19.00;;;8.67;;
21581;SDS011;10952;50.836;4.348;2024-02-04T07:45:28;18.37;;;9.20;;
21581;SDS011;10952;50.836;4.348;2024-02-04T07:51:16;19.93;;;8.67;;
21581;SDS011;10952;50.836;4.348;2024-02-04T07:53:45;19.87;;;9.67;;
21581;SDS011;10952;50.836;4.348;2024-02-04T07:56:11;22.40;;;9.17;;
21581;SDS011;10952;50.836;4.348;2024-02-04T07:58:37;24.27;;;9.17;;
21581;SDS011;10952;50.836;4.348;2024-02-04T08:03:32;19.83;;;8.13;;
21581;SDS011;10952;50.836;4.348;2024-02-04T08:05:58;17.60;;;8.77;;
21581;SDS011;10952;50.836;4.348;2024-02-04T08:08:27;19.10;;;8.13;;
21581;SDS011;10952;50.836;4.348;2024-02-04T08:13:23;18.27;;;8.40;;
21581;SDS011;10952;50.836;4.348;2024-02-04T08:15:49;16.00;;;7.77;;
21581;SDS011;10952;50.836;4.348;2024-02-04T08:23:20;16.63;;;7.53;;
21581;SDS011;10952;50.836;4.348;2024-02-04T08:25:48;12.97;;;7.23;;
21581;SDS011;10952;50.836;4.348;2024-02-04T08:28:18;18.63;;;10.07;;
21581;SDS011;10952;50.836;4.348;2024-02-04T08:30:47;13.97;;;6.93;;
21581;SDS011;10952;50.836;4.348;2024-02-04T08:33:12;16.90;;;7.37;;
21581;SDS011;10952;50.836;4.348;2024-02-04T08:38:08;12.87;;;6.63;;
21581;SDS011;10952;50.836;4.348;2024-02-04T08:43:06;12.70;;;6.13;;
21581;SDS011;10952;50.836;4.348;2024-02-04T08:45:32;11.57;;;5.90;;
21581;SDS011;10952;50.836;4.348;2024-02-04T08:50:37;12.53;;;6.30;;
21581;SDS011;10952;50.836;4.348;2024-02-04T08:55:31;13.17;;;5.40;;
21581;SDS011;10952;50.836;4.348;2024-02-04T08:57:59;12.07;;;5.37;;
21581;SDS011;10952;50.836;4.348;2024-02-04T09:00:28;10.70;;;5.43;;
21581;SDS011;10952;50.836;4.348;2024-02-04T09:02:55;13.13;;;4.00;;
21581;SDS011;10952;50.836;4.348;2024-02-04T09:05:22;9.90;;;4.70;;
21581;SDS011;10952;50.836;4.348;2024-02-04T09:07:56;8.27;;;4.00;;
21581;SDS011;10952;50.836;4.348;2024-02-04T09:10:23;11.17;;;4.40;;
21581;SDS011;10952;50.836;4.348;2024-02-04T09:12:49;13.47;;;4.87;;
21581;SDS011;10952;50.836;4.348;2024-02-04T09:15:16;12.33;;;4.13;;
21581;SDS011;10952;50.836;4.348;2024-02-04T09:17:45;9.53;;;3.63;;
21581;SDS011;10952;50.836;4.348;2024-02-04T09:20:11;9.93;;;3.80;;
21581;SDS011;10952;50.836;4.348;2024-02-04T09:22:37;8.37;;;3.90;;
21581;SDS011;10952;50.836;4.348;2024-02-04T09:25:05;8.57;;;3.40;;
21581;SDS011;10952;50.836;4.348;2024-02-04T09:27:34;9.33;;;3.17;;
21581;SDS011;10952;50.836;4.348;2024-02-04T09:32:29;8.30;;;2.87;;
21581;SDS011;10952;50.836;4.348;2024-02-04T09:34:57;7.83;;;2.83;;
21581;SDS011;10952;50.836;4.348;2024-02-04T09:37:35;7.43;;;2.70;;
21581;SDS011;10952;50.836;4.348;2024-02-04T09:40:01;5.80;;;2.63;;
21581;SDS011;10952;50.836;4.348;2024-02-04T09:42:30;5.87;;;2.73;;
21581;SDS011;10952;50.836;4.348;2024-02-04T09:45:00;10.83;;;2.83;;
21581;SDS011;10952;50.836;4.348;2024-02-04T09:47:26;10.53;;;3.10;;
21581;SDS011;10952;50.836;4.348;2024-02-04T09:49:55;5.67;;;2.97;;
21581;SDS011;10952;50.836;4.348;2024-02-04T09:52:21;15.50;;;3.13;;
21581;SDS011;10952;50.836;4.348;2024-02-04T09:55:03;3.80;;;2.00;;
21581;SDS011;10952;50.836;4.348;2024-02-04T09:57:31;9.97;;;3.60;;
21581;SDS011;10952;50.836;4.348;2024-02-04T09:59:57;9.30;;;2.97;;
21581;SDS011;10952;50.836;4.348;2024-02-04T10:02:27;14.50;;;4.10;;
21581;SDS011;10952;50.836;4.348;2024-02-04T10:04:53;6.83;;;3.53;;
21581;SDS011;10952;50.836;4.348;2024-02-04T10:07:22;8.00;;;3.10;;
21581;SDS011;10952;50.836;4.348;2024-02-04T10:09:52;7.23;;;3.47;;
21581;SDS011;10952;50.836;4.348;2024-02-04T10:12:21;5.90;;;2.90;;
21581;SDS011;10952;50.836;4.348;2024-02-04T10:14:48;11.07;;;3.20;;
21581;SDS011;10952;50.836;4.348;2024-02-04T10:17:20;10.20;;;4.00;;
21581;SDS011;10952;50.836;4.348;2024-02-04T10:19:47;8.13;;;3.67;;
21581;SDS011;10952;50.836;4.348;2024-02-04T10:22:15;9.70;;;4.23;;
21581;SDS011;10952;50.836;4.348;2024-02-04T10:24:51;6.70;;;3.90;;
21581;SDS011;10952;50.836;4.348;2024-02-04T10:29:48;7.60;;;3.80;;
21581;SDS011;10952;50.836;4.348;2024-02-04T10:34:50;13.90;;;4.03;;
21581;SDS011;10952;50.836;4.348;2024-02-04T10:37:16;8.53;;;3.30;;
21581;SDS011;10952;50.836;4.348;2024-02-04T10:39:52;9.07;;;3.30;;
21581;SDS011;10952;50.836;4.348;2024-02-04T10:42:23;7.13;;;3.23;;
21581;SDS011;10952;50.836;4.348;2024-02-04T10:44:51;8.70;;;3.60;;
21581;SDS011;10952;50.836;4.348;2024-02-04T10:47:29;6.43;;;2.70;;
21581;SDS011;10952;50.836;4.348;2024-02-04T10:49:58;5.97;;;2.90;;
21581;SDS011;10952;50.836;4.348;2024-02-04T10:52:28;8.10;;;2.90;;
21581;SDS011;10952;50.836;4.348;2024-02-04T10:55:11;6.17;;;2.60;;
21581;SDS011;10952;50.836;4.348;2024-02-04T10:57:38;14.73;;;2.27;;
21581;SDS011;10952;50.836;4.348;2024-02-04T11:00:05;5.77;;;2.83;;
21581;SDS011;10952;50.836;4.348;2024-02-04T11:02:38;8.83;;;2.40;;
21581;SDS011;10952;50.836;4.348;2024-02-04T11:05:10;6.43;;;2.17;;
21581;SDS011;10952;50.836;4.348;2024-02-04T11:07:39;4.80;;;1.90;;
21581;SDS011;10952;50.836;4.348;2024-02-04T11:10:08;7.13;;;1.87;;
21581;SDS011;10952;50.836;4.348;2024-02-04T11:12:37;4.70;;;1.87;;
21581;SDS011;10952;50.836;4.348;2024-02-04T11:15:05;5.90;;;1.77;;
21581;SDS011;10952;50.836;4.348;2024-02-04T11:17:40;5.30;;;1.97;;
21581;SDS011;10952;50.836;4.348;2024-02-04T11:26:11;5.13;;;1.60;;
21581;SDS011;10952;50.836;4.348;2024-02-04T11:28:39;6.53;;;1.90;;
21581;SDS011;10952;50.836;4.348;2024-02-04T11:31:04;7.00;;;1.83;;
21581;SDS011;10952;50.836;4.348;2024-02-04T11:33:38;5.20;;;1.60;;
21581;SDS011;10952;50.836;4.348;2024-02-04T11:36:04;5.20;;;1.80;;
21581;SDS011;10952;50.836;4.348;2024-02-04T11:38:32;3.83;;;1.60;;
21581;SDS011;10952;50.836;4.348;2024-02-04T11:41:02;6.03;;;1.60;;
21581;SDS011;10952;50.836;4.348;2024-02-04T11:43:28;4.20;;;2.67;;
21581;SDS011;10952;50.836;4.348;2024-02-04T11:45:54;6.13;;;2.63;;
21581;SDS011;10952;50.836;4.348;2024-02-04T11:48:20;4.20;;;1.53;;
21581;SDS011;10952;50.836;4.348;2024-02-04T11:50:53;4.70;;;1.87;;
21581;SDS011;10952;50.836;4.348;2024-02-04T11:53:19;4.80;;;1.63;;
21581;SDS011;10952;50.836;4.348;2024-02-04T11:55:45;6.33;;;1.67;;
21581;SDS011;10952;50.836;4.348;2024-02-04T11:58:11;2.63;;;1.57;;
21581;SDS011;10952;50.836;4.348;2024-02-04T12:00:37;3.90;;;1.70;;
21581;SDS011;10952;50.836;4.348;2024-02-04T12:03:07;4.63;;;1.80;;
21581;SDS011;10952;50.836;4.348;2024-02-04T12:05:34;7.60;;;2.00;;
21581;SDS011;10952;50.836;4.348;2024-02-04T12:08:01;4.27;;;1.70;;
21581;SDS011;10952;50.836;4.348;2024-02-04T12:10:34;4.93;;;1.90;;
21581;SDS011;10952;50.836;4.348;2024-02-04T12:13:04;7.27;;;2.00;;
21581;SDS011;10952;50.836;4.348;2024-02-04T12:15:34;4.90;;;2.10;;
21581;SDS011;10952;50.836;4.348;2024-02-04T12:18:10;4.17;;;1.90;;
21581;SDS011;10952;50.836;4.348;2024-02-04T12:20:37;4.70;;;1.70;;
21581;SDS011;10952;50.836;4.348;2024-02-04T12:23:03;5.30;;;1.70;;
21581;SDS011;10952;50.836;4.348;2024-02-04T12:25:36;6.43;;;2.13;;
21581;SDS011;10952;50.836;4.348;2024-02-04T12:28:02;6.20;;;1.93;;
21581;SDS011;10952;50.836;4.348;2024-02-04T12:30:29;7.10;;;1.97;;
21581;SDS011;10952;50.836;4.348;2024-02-04T12:32:59;4.23;;;2.13;;
21581;SDS011;10952;50.836;4.348;2024-02-04T12:35:26;5.47;;;2.17;;
21581;SDS011;10952;50.836;4.348;2024-02-04T12:37:55;9.37;;;1.97;;
21581;SDS011;10952;50.836;4.348;2024-02-04T12:40:25;6.73;;;1.93;;
21581;SDS011;10952;50.836;4.348;2024-02-04T12:42:59;4.27;;;1.70;;
21581;SDS011;10952;50.836;4.348;2024-02-04T12:45:26;4.53;;;1.93;;
21581;SDS011;10952;50.836;4.348;2024-02-04T12:47:57;5.23;;;2.43;;
21581;SDS011;10952;50.836;4.348;2024-02-04T12:50:24;7.37;;;2.33;;
21581;SDS011;10952;50.836;4.348;2024-02-04T12:53:08;6.50;;;2.37;;
21581;SDS011;10952;50.836;4.348;2024-02-04T12:55:38;7.70;;;2.33;;
21581;SDS011;10952;50.836;4.348;2024-02-04T12:58:07;3.33;;;1.67;;
21581;SDS011;10952;50.836;4.348;2024-02-04T13:00:34;3.30;;;1.90;;
21581;SDS011;10952;50.836;4.348;2024-02-04T13:03:01;3.67;;;1.97;;
21581;SDS011;10952;50.836;4.348;2024-02-04T13:05:31;4.07;;;2.10;;
21581;SDS011;10952;50.836;4.348;2024-02-04T13:07:57;6.37;;;2.50;;
21581;SDS011;10952;50.836;4.348;2024-02-04T13:10:24;5.03;;;2.00;;
21581;SDS011;10952;50.836;4.348;2024-02-04T13:12:57;5.57;;;1.93;;
21581;SDS011;10952;50.836;4.348;2024-02-04T13:15:42;5.67;;;2.50;;
21581;SDS011;10952;50.836;4.348;2024-02-04T13:18:08;5.03;;;1.73;;
21581;SDS011;10952;50.836;4.348;2024-02-04T13:20:40;4.47;;;2.10;;
21581;SDS011;10952;50.836;4.348;2024-02-04T13:23:10;5.83;;;2.00;;
21581;SDS011;10952;50.836;4.348;2024-02-04T13:25:36;3.33;;;1.93;;
21581;SDS011;10952;50.836;4.348;2024-02-04T13:28:03;4.60;;;2.17;;
21581;SDS011;10952;50.836;4.348;2024-02-04T13:30:29;3.37;;;1.83;;
21581;SDS011;10952;50.836;4.348;2024-02-04T13:32:55;4.50;;;2.17;;
21581;SDS011;10952;50.836;4.348;2024-02-04T13:35:22;4.37;;;2.20;;
21581;SDS011;10952;50.836;4.348;2024-02-04T13:37:48;4.90;;;2.60;;
21581;SDS011;10952;50.836;4.348;2024-02-04T13:40:18;3.67;;;2.27;;
21581;SDS011;10952;50.836;4.348;2024-02-04T13:42:44;7.33;;;2.43;;
21581;SDS011;10952;50.836;4.348;2024-02-04T13:45:11;6.03;;;2.57;;
21581;SDS011;10952;50.836;4.348;2024-02-04T13:47:39;10.27;;;3.00;;
21581;SDS011;10952;50.836;4.348;2024-02-04T13:50:05;6.67;;;2.80;;
21581;SDS011;10952;50.836;4.348;2024-02-04T13:52:34;9.60;;;3.17;;
21581;SDS011;10952;50.836;4.348;2024-02-04T13:55:00;11.43;;;2.73;;
21581;SDS011;10952;50.836;4.348;2024-02-04T13:57:25;5.57;;;2.47;;
21581;SDS011;10952;50.836;4.348;2024-02-04T13:59:51;8.20;;;2.70;;
21581;SDS011;10952;50.836;4.348;2024-02-04T14:02:17;7.77;;;2.47;;
21581;SDS011;10952;50.836;4.348;2024-02-04T14:04:43;8.20;;;3.50;;
21581;SDS011;10952;50.836;4.348;2024-02-04T14:07:09;6.80;;;3.00;;
21581;SDS011;10952;50.836;4.348;2024-02-04T14:09:35;6.80;;;2.87;;
21581;SDS011;10952;50.836;4.348;2024-02-04T14:12:02;5.60;;;2.83;;
21581;SDS011;10952;50.836;4.348;2024-02-04T14:14:29;7.33;;;3.20;;
21581;SDS011;10952;50.836;4.348;2024-02-04T14:16:55;10.97;;;3.20;;
21581;SDS011;10952;50.836;4.348;2024-02-04T14:19:20;6.33;;;2.77;;
21581;SDS011;10952;50.836;4.348;2024-02-04T14:21:47;9.93;;;3.00;;
21581;SDS011;10952;50.836;4.348;2024-02-04T14:24:12;8.00;;;3.00;;
21581;SDS011;10952;50.836;4.348;2024-02-04T14:26:38;11.23;;;2.60;;
21581;SDS011;10952;50.836;4.348;2024-02-04T14:29:06;11.27;;;3.60;;
21581;SDS011;10952;50.836;4.348;2024-02-04T14:31:32;10.90;;;2.90;;
21581;SDS011;10952;50.836;4.348;2024-02-04T14:33:58;9.13;;;3.53;;
21581;SDS011;10952;50.836;4.348;2024-02-04T14:36:24;7.27;;;2.90;;
21581;SDS011;10952;50.836;4.348;2024-02-04T14:38:50;8.37;;;2.63;;
21581;SDS011;10952;50.836;4.348;2024-02-04T14:41:16;8.20;;;2.70;;
21581;SDS011;10952;50.836;4.348;2024-02-04T14:43:42;6.70;;;2.43;;
21581;SDS011;10952;50.836;4.348;2024-02-04T14:46:08;9.63;;;3.20;;
21581;SDS011;10952;50.836;4.348;2024-02-04T14:48:35;8.80;;;2.83;;
21581;SDS011;10952;50.836;4.348;2024-02-04T14:51:02;8.37;;;2.90;;
21581;SDS011;10952;50.836;4.348;2024-02-04T14:53:28;10.33;;;2.37;;
21581;SDS011;10952;50.836;4.348;2024-02-04T14:55:53;8.20;;;3.23;;
21581;SDS011;10952;50.836;4.348;2024-02-04T14:58:21;10.00;;;3.20;;
21581;SDS011;10952;50.836;4.348;2024-02-04T15:00:47;13.03;;;3.23;;
21581;SDS011;10952;50.836;4.348;2024-02-04T15:03:13;6.87;;;2.93;;
21581;SDS011;10952;50.836;4.348;2024-02-04T15:05:40;7.10;;;2.67;;
21581;SDS011;10952;50.836;4.348;2024-02-04T15:08:06;11.80;;;3.20;;
21581;SDS011;10952;50.836;4.348;2024-02-04T15:10:33;10.77;;;3.20;;
21581;SDS011;10952;50.836;4.348;2024-02-04T15:12:59;9.40;;;3.13;;
21581;SDS011;10952;50.836;4.348;2024-02-04T15:15:25;6.27;;;2.83;;
21581;SDS011;10952;50.836;4.348;2024-02-04T15:17:51;10.83;;;2.90;;
21581;SDS011;10952;50.836;4.348;2024-02-04T15:20:17;12.17;;;3.13;;
21581;SDS011;10952;50.836;4.348;2024-02-04T15:22:44;9.97;;;3.07;;
21581;SDS011;10952;50.836;4.348;2024-02-04T15:25:10;10.10;;;2.83;;
21581;SDS011;10952;50.836;4.348;2024-02-04T15:27:38;8.47;;;2.70;;
21581;SDS011;10952;50.836;4.348;2024-02-04T15:30:05;8.63;;;3.43;;
21581;SDS011;10952;50.836;4.348;2024-02-04T15:32:34;14.17;;;3.33;;
21581;SDS011;10952;50.836;4.348;2024-02-04T15:35:00;9.60;;;3.43;;
21581;SDS011;10952;50.836;4.348;2024-02-04T15:37:25;9.97;;;3.93;;
21581;SDS011;10952;50.836;4.348;2024-02-04T15:39:52;9.17;;;3.40;;
21581;SDS011;10952;50.836;4.348;2024-02-04T15:42:19;10.37;;;3.03;;
21581;SDS011;10952;50.836;4.348;2024-02-04T15:44:45;12.37;;;3.83;;
21581;SDS011;10952;50.836;4.348;2024-02-04T15:47:10;11.00;;;3.50;;
21581;SDS011;10952;50.836;4.348;2024-02-04T15:49:37;10.53;;;2.60;;
21581;SDS011;10952;50.836;4.348;2024-02-04T15:52:03;7.97;;;2.70;;
21581;SDS011;10952;50.836;4.348;2024-02-04T15:54:29;10.87;;;3.30;;
21581;SDS011;10952;50.836;4.348;2024-02-04T15:57:05;9.87;;;3.43;;
21581;SDS011;10952;50.836;4.348;2024-02-04T16:02:05;10.80;;;3.37;;
21581;SDS011;10952;50.836;4.348;2024-02-04T16:04:33;10.00;;;3.37;;
21581;SDS011;10952;50.836;4.348;2024-02-04T16:06:59;17.30;;;3.70;;
21581;SDS011;10952;50.836;4.348;2024-02-04T16:09:27;9.17;;;3.23;;
21581;SDS011;10952;50.836;4.348;2024-02-04T16:12:04;11.67;;;3.23;;
21581;SDS011;10952;50.836;4.348;2024-02-04T16:14:37;14.00;;;3.37;;
21581;SDS011;10952;50.836;4.348;2024-02-04T16:17:11;12.37;;;4.43;;
21581;SDS011;10952;50.836;4.348;2024-02-04T16:19:38;11.10;;;3.30;;
21581;SDS011;10952;50.836;4.348;2024-02-04T16:22:04;14.17;;;3.30;;
21581;SDS011;10952;50.836;4.348;2024-02-04T16:24:30;14.13;;;3.00;;
21581;SDS011;10952;50.836;4.348;2024-02-04T16:26:56;10.47;;;2.87;;
21581;SDS011;10952;50.836;4.348;2024-02-04T16:29:22;11.10;;;3.00;;
21581;SDS011;10952;50.836;4.348;2024-02-04T16:31:52;14.37;;;3.23;;
21581;SDS011;10952;50.836;4.348;2024-02-04T16:34:18;11.37;;;3.10;;
21581;SDS011;10952;50.836;4.348;2024-02-04T16:36:46;11.80;;;3.30;;
21581;SDS011;10952;50.836;4.348;2024-02-04T16:39:15;7.43;;;2.70;;
21581;SDS011;10952;50.836;4.348;2024-02-04T16:41:42;7.97;;;2.93;;
21581;SDS011;10952;50.836;4.348;2024-02-04T16:44:09;11.50;;;3.60;;
21581;SDS011;10952;50.836;4.348;2024-02-04T16:46:41;9.50;;;3.30;;
21581;SDS011;10952;50.836;4.348;2024-02-04T16:49:08;10.67;;;3.50;;
21581;SDS011;10952;50.836;4.348;2024-02-04T16:51:42;13.87;;;3.10;;
21581;SDS011;10952;50.836;4.348;2024-02-04T16:54:08;10.00;;;2.67;;
21581;SDS011;10952;50.836;4.348;2024-02-04T16:56:34;12.67;;;3.30;;
21581;SDS011;10952;50.836;4.348;2024-02-04T16:59:02;16.63;;;2.73;;
21581;SDS011;10952;50.836;4.348;2024-02-04T17:01:28;12.57;;;3.00;;
21581;SDS011;10952;50.836;4.348;2024-02-04T17:03:55;13.33;;;2.97;;
21581;SDS011;10952;50.836;4.348;2024-02-04T17:06:23;11.20;;;2.47;;
21581;SDS011;10952;50.836;4.348;2024-02-04T17:08:49;13.47;;;3.00;;